Time;durP1;ratioP1;P1;durP2;ratioP2;P2;SDS_P1;SDS_P2;PMS_P1;PMS_P2;Temp;Humidity;BMP_temperature;BMP_pressure;BME280_temperature;BME280_humidity;BME280_pressure;Samples;Min_cycle;Max_cycle;Signal;HPM_P1;HPM_P2
2023/06/06 00:01:02;;;;;;;4.10;3.80;;;;;;;;;;4972327;28;20181;-73
2023/06/06 00:03:28;;;;;;;4.83;4.30;;;;;;;;;;4971799;28;20257;-73
2023/06/06 00:05:53;;;;;;;5.20;4.43;;;;;;;;;;5013573;28;20209;-73
2023/06/06 00:08:23;;;;;;;4.37;4.07;;;;;;;;;;4981135;28;20190;-73
2023/06/06 00:10:49;;;;;;;4.17;3.87;;;;;;;;;;4989903;28;20214;-73
2023/06/06 00:13:14;;;;;;;3.90;3.60;;;;;;;;;;4969719;28;20182;-73
2023/06/06 00:15:40;;;;;;;4.47;4.07;;;;;;;;;;4976513;28;20179;-73
2023/06/06 00:18:06;;;;;;;4.67;4.17;;;;;;;;;;4986735;28;20194;-73
2023/06/06 00:20:32;;;;;;;4.87;3.97;;;;;;;;;;4976303;28;20194;-73
2023/06/06 00:22:58;;;;;;;4.60;4.10;;;;;;;;;;4976178;28;20180;-73
2023/06/06 00:25:23;;;;;;;5.00;3.40;;;;;;;;;;4979693;28;20188;-73
2023/06/06 00:27:48;;;;;;;4.03;3.60;;;;;;;;;;4969531;28;20359;-73
2023/06/06 00:30:13;;;;;;;3.87;3.47;;;;;;;;;;4972569;28;20183;-73
2023/06/06 00:32:39;;;;;;;3.87;3.50;;;;;;;;;;4967798;28;20182;-73
2023/06/06 00:35:04;;;;;;;4.13;3.80;;;;;;;;;;4974362;28;20179;-73
2023/06/06 00:37:29;;;;;;;3.73;3.43;;;;;;;;;;4973870;28;20177;-73
2023/06/06 00:39:55;;;;;;;4.63;3.67;;;;;;;;;;4974095;28;20180;-73
2023/06/06 00:42:20;;;;;;;3.80;3.10;;;;;;;;;;4977096;28;20217;-73
2023/06/06 00:44:45;;;;;;;4.73;3.60;;;;;;;;;;4972721;28;20190;-73
2023/06/06 00:47:11;;;;;;;3.53;3.23;;;;;;;;;;4982269;28;20235;-73
2023/06/06 00:49:37;;;;;;;3.80;3.40;;;;;;;;;;4980562;28;20173;-73
2023/06/06 00:52:02;;;;;;;4.13;3.57;;;;;;;;;;4976147;28;20184;-73
2023/06/06 00:54:28;;;;;;;3.77;3.47;;;;;;;;;;4979228;28;20215;-73
2023/06/06 00:56:54;;;;;;;4.77;3.60;;;;;;;;;;4980288;28;20215;-73
2023/06/06 00:59:20;;;;;;;3.17;2.97;;;;;;;;;;4986863;28;20194;-73
2023/06/06 01:01:48;;;;;;;3.53;3.23;;;;;;;;;;4977311;28;20286;-73
2023/06/06 01:04:15;;;;;;;3.90;3.60;;;;;;;;;;4970957;28;20366;-73
2023/06/06 01:06:41;;;;;;;3.33;3.13;;;;;;;;;;4983704;28;20200;-73
2023/06/06 01:09:08;;;;;;;3.60;3.30;;;;;;;;;;4977267;28;20182;-73
2023/06/06 01:11:57;;;;;;;3.87;3.57;;;;;;;;;;4974935;28;20177;-72
2023/06/06 01:14:25;;;;;;;3.93;3.60;;;;;;;;;;4960906;28;20191;-73
2023/06/06 01:16:52;;;;;;;3.50;3.20;;;;;;;;;;4979595;28;20207;-73
2023/06/06 01:19:27;;;;;;;4.03;3.20;;;;;;;;;;4967834;28;20184;-73
2023/06/06 01:21:54;;;;;;;3.77;3.43;;;;;;;;;;4970710;28;20179;-73
2023/06/06 01:24:20;;;;;;;4.40;3.23;;;;;;;;;;4977765;28;20184;-73
2023/06/06 01:26:45;;;;;;;4.20;3.17;;;;;;;;;;4972474;28;20218;-73
2023/06/06 01:29:10;;;;;;;3.40;3.00;;;;;;;;;;4974274;28;20216;-73
2023/06/06 01:31:41;;;;;;;5.00;3.63;;;;;;;;;;4972712;28;20180;-73
2023/06/06 01:34:08;;;;;;;3.50;3.13;;;;;;;;;;4969814;28;20189;-73
2023/06/06 01:37:00;;;;;;;3.67;3.40;;;;;;;;;;4975465;28;20262;-73
2023/06/06 01:39:26;;;;;;;3.37;3.03;;;;;;;;;;4966493;28;20192;-73
2023/06/06 01:41:54;;;;;;;3.67;3.33;;;;;;;;;;4975451;28;20199;-73
2023/06/06 01:44:20;;;;;;;3.50;3.20;;;;;;;;;;4981102;28;20188;-73
2023/06/06 01:46:45;;;;;;;3.27;3.00;;;;;;;;;;4974707;28;20212;-73
2023/06/06 01:49:11;;;;;;;3.73;3.43;;;;;;;;;;4987255;28;20191;-73
2023/06/06 01:51:36;;;;;;;3.77;3.10;;;;;;;;;;4977684;28;20190;-73
2023/06/06 01:54:01;;;;;;;3.00;2.80;;;;;;;;;;4966904;28;20218;-73
2023/06/06 01:56:28;;;;;;;2.90;2.70;;;;;;;;;;4974729;28;20176;-73
2023/06/06 01:58:53;;;;;;;2.90;2.70;;;;;;;;;;4980281;28;20189;-72
2023/06/06 02:01:18;;;;;;;3.53;3.23;;;;;;;;;;4982489;28;20255;-73
2023/06/06 02:03:43;;;;;;;3.40;3.10;;;;;;;;;;4973048;28;20223;-73
2023/06/06 02:06:09;;;;;;;3.30;3.03;;;;;;;;;;4967765;28;20218;-73
2023/06/06 02:08:34;;;;;;;4.00;3.03;;;;;;;;;;4976351;28;20182;-73
2023/06/06 02:10:59;;;;;;;3.57;3.27;;;;;;;;;;4976291;28;20188;-73
2023/06/06 02:13:25;;;;;;;3.40;3.10;;;;;;;;;;4975294;28;20171;-73
2023/06/06 02:15:50;;;;;;;3.53;3.23;;;;;;;;;;4970662;28;20186;-73
2023/06/06 02:18:16;;;;;;;3.97;3.00;;;;;;;;;;4976874;28;20188;-73
2023/06/06 02:20:41;;;;;;;3.70;3.33;;;;;;;;;;4969469;28;20198;-73
2023/06/06 02:23:06;;;;;;;3.33;3.03;;;;;;;;;;4972011;28;20181;-73
2023/06/06 02:25:33;;;;;;;3.70;3.37;;;;;;;;;;4967833;28;20177;-73
2023/06/06 02:27:58;;;;;;;3.30;3.00;;;;;;;;;;4982463;28;20186;-73
2023/06/06 02:30:24;;;;;;;3.13;2.90;;;;;;;;;;4977183;28;20184;-73
2023/06/06 02:32:50;;;;;;;2.97;2.77;;;;;;;;;;4971439;28;20183;-73
2023/06/06 02:35:18;;;;;;;4.27;3.30;;;;;;;;;;4971094;28;20180;-73
2023/06/06 02:37:43;;;;;;;3.13;2.80;;;;;;;;;;4973807;28;20186;-73
2023/06/06 02:40:09;;;;;;;3.47;3.00;;;;;;;;;;4973170;28;20186;-73
2023/06/06 02:42:35;;;;;;;3.60;3.30;;;;;;;;;;4972818;28;20182;-73
2023/06/06 02:45:01;;;;;;;3.37;3.07;;;;;;;;;;4973566;28;20185;-73
2023/06/06 02:47:26;;;;;;;3.53;3.23;;;;;;;;;;4972229;28;20209;-73
2023/06/06 02:49:51;;;;;;;3.27;2.97;;;;;;;;;;4967857;28;20185;-73
2023/06/06 02:52:17;;;;;;;3.37;3.07;;;;;;;;;;4970535;28;20263;-73
2023/06/06 02:54:42;;;;;;;3.20;3.00;;;;;;;;;;4974190;28;20268;-73
2023/06/06 02:57:07;;;;;;;4.60;3.40;;;;;;;;;;4978828;28;20193;-73
2023/06/06 02:59:32;;;;;;;3.27;2.80;;;;;;;;;;4980034;28;20237;-72
2023/06/06 03:01:57;;;;;;;3.20;3.00;;;;;;;;;;4975097;28;20181;-73
2023/06/06 03:04:23;;;;;;;2.80;2.57;;;;;;;;;;4972181;28;20291;-72
2023/06/06 03:06:48;;;;;;;3.47;3.17;;;;;;;;;;4994249;28;20260;-73
2023/06/06 03:09:13;;;;;;;3.27;2.97;;;;;;;;;;4975678;28;20178;-73
2023/06/06 03:11:39;;;;;;;3.77;3.00;;;;;;;;;;4971710;28;20220;-73
2023/06/06 03:14:04;;;;;;;3.73;2.90;;;;;;;;;;4975395;28;20182;-73
2023/06/06 03:16:30;;;;;;;3.20;2.90;;;;;;;;;;4968734;28;20189;-73
2023/06/06 03:18:55;;;;;;;4.17;3.17;;;;;;;;;;4971338;28;20176;-73
2023/06/06 03:21:21;;;;;;;2.83;2.63;;;;;;;;;;4968727;28;20178;-73
2023/06/06 03:23:46;;;;;;;3.50;3.07;;;;;;;;;;4970481;28;20194;-73
2023/06/06 03:26:11;;;;;;;3.70;3.40;;;;;;;;;;4988173;28;20210;-72
2023/06/06 03:28:37;;;;;;;3.67;3.27;;;;;;;;;;4976726;28;20203;-73
2023/06/06 03:31:06;;;;;;;3.30;2.90;;;;;;;;;;4969917;28;20267;-73
2023/06/06 03:33:32;;;;;;;4.77;3.23;;;;;;;;;;4974182;28;20212;-73
2023/06/06 03:35:58;;;;;;;7.33;3.53;;;;;;;;;;4966752;28;20184;-73
2023/06/06 03:38:23;;;;;;;10.33;4.00;;;;;;;;;;4969849;28;20238;-73
2023/06/06 03:40:48;;;;;;;5.77;3.20;;;;;;;;;;4970158;28;20182;-73
2023/06/06 03:43:13;;;;;;;5.03;3.07;;;;;;;;;;4974084;28;20245;-73
2023/06/06 03:45:38;;;;;;;3.30;3.00;;;;;;;;;;4967786;28;20277;-73
2023/06/06 03:48:04;;;;;;;3.77;3.20;;;;;;;;;;4969940;28;20292;-73
2023/06/06 03:50:29;;;;;;;3.83;3.13;;;;;;;;;;4970178;28;20182;-73
2023/06/06 03:52:55;;;;;;;4.00;3.00;;;;;;;;;;4973219;28;20192;-73
2023/06/06 03:55:20;;;;;;;3.47;3.17;;;;;;;;;;4991406;28;20177;-73
2023/06/06 03:57:45;;;;;;;2.97;2.77;;;;;;;;;;4971221;28;20227;-72
2023/06/06 04:00:11;;;;;;;3.43;3.13;;;;;;;;;;4989617;28;20199;-73
2023/06/06 04:02:40;;;;;;;2.90;2.70;;;;;;;;;;4972026;28;20179;-73
2023/06/06 04:05:05;;;;;;;3.60;3.10;;;;;;;;;;4971132;28;20236;-73
2023/06/06 04:07:31;;;;;;;3.20;2.90;;;;;;;;;;4972417;28;20213;-73
2023/06/06 04:09:56;;;;;;;3.40;2.93;;;;;;;;;;4973763;28;20178;-73
2023/06/06 04:12:21;;;;;;;3.77;3.07;;;;;;;;;;4977373;28;20288;-72
2023/06/06 04:14:47;;;;;;;3.50;3.20;;;;;;;;;;4970997;28;20189;-73
2023/06/06 04:17:12;;;;;;;5.63;3.30;;;;;;;;;;4979675;28;20180;-73
2023/06/06 04:19:37;;;;;;;3.23;3.00;;;;;;;;;;4974114;28;20188;-72
2023/06/06 04:22:05;;;;;;;5.27;3.20;;;;;;;;;;4981694;28;20181;-73
2023/06/06 04:24:30;;;;;;;4.63;3.40;;;;;;;;;;4974444;28;20188;-73
2023/06/06 04:26:55;;;;;;;3.80;3.50;;;;;;;;;;4974649;28;20200;-73
2023/06/06 04:29:20;;;;;;;4.80;3.40;;;;;;;;;;4969959;28;20262;-73
2023/06/06 04:31:46;;;;;;;3.63;3.33;;;;;;;;;;4987022;28;20268;-73
2023/06/06 04:34:12;;;;;;;4.20;3.70;;;;;;;;;;4970522;28;20315;-73
2023/06/06 04:36:40;;;;;;;3.77;2.90;;;;;;;;;;4977171;28;20214;-73
2023/06/06 04:39:07;;;;;;;3.37;3.07;;;;;;;;;;4986844;28;20188;-73
2023/06/06 04:41:33;;;;;;;3.47;3.17;;;;;;;;;;4987075;28;20202;-73
2023/06/06 04:43:59;;;;;;;3.00;2.80;;;;;;;;;;4973728;28;20188;-73
2023/06/06 04:46:24;;;;;;;3.90;3.60;;;;;;;;;;4982190;28;20200;-74
2023/06/06 04:48:53;;;;;;;5.70;4.33;;;;;;;;;;4979204;28;20192;-73
2023/06/06 04:51:18;;;;;;;4.00;3.70;;;;;;;;;;4972625;28;20232;-72
2023/06/06 04:53:44;;;;;;;3.87;3.57;;;;;;;;;;4983587;28;20177;-73
2023/06/06 04:56:10;;;;;;;3.80;3.50;;;;;;;;;;4978654;28;20177;-73
2023/06/06 04:58:35;;;;;;;6.97;4.13;;;;;;;;;;4967515;28;20181;-73
2023/06/06 05:01:00;;;;;;;5.00;3.00;;;;;;;;;;4972460;28;20238;-73
2023/06/06 05:03:27;;;;;;;5.90;3.33;;;;;;;;;;4987848;28;20178;-74
2023/06/06 05:05:53;;;;;;;3.87;3.40;;;;;;;;;;5054946;28;20220;-73
2023/06/06 05:08:19;;;;;;;3.30;3.00;;;;;;;;;;5048872;28;20235;-73
2023/06/06 05:10:44;;;;;;;3.50;2.87;;;;;;;;;;5053611;28;20187;-73
2023/06/06 05:13:09;;;;;;;4.90;3.70;;;;;;;;;;5051693;28;20289;-73
2023/06/06 05:15:35;;;;;;;3.27;2.97;;;;;;;;;;5033813;28;20239;-73
2023/06/06 05:18:00;;;;;;;3.90;3.23;;;;;;;;;;5051137;28;20183;-74
2023/06/06 05:20:25;;;;;;;3.43;3.13;;;;;;;;;;5051372;28;20217;-74
2023/06/06 05:22:50;;;;;;;4.20;3.80;;;;;;;;;;5061662;28;20343;-73
2023/06/06 05:25:16;;;;;;;18.17;4.30;;;;;;;;;;5031790;28;20175;-73
2023/06/06 05:27:41;;;;;;;7.53;3.20;;;;;;;;;;5046917;28;20237;-73
2023/06/06 05:30:07;;;;;;;3.70;3.33;;;;;;;;;;5056348;28;20293;-73
2023/06/06 05:32:32;;;;;;;4.77;3.20;;;;;;;;;;5053490;28;20191;-74
2023/06/06 05:34:57;;;;;;;2.97;2.70;;;;;;;;;;5029492;28;20202;-74
2023/06/06 05:37:22;;;;;;;3.43;3.13;;;;;;;;;;5052325;28;20215;-74
2023/06/06 05:39:47;;;;;;;3.40;2.80;;;;;;;;;;5042431;28;20180;-73
2023/06/06 05:42:13;;;;;;;3.70;3.23;;;;;;;;;;5036716;28;20275;-74
2023/06/06 05:44:38;;;;;;;4.03;2.80;;;;;;;;;;5057039;28;20181;-74
2023/06/06 05:47:03;;;;;;;5.07;3.47;;;;;;;;;;5051866;28;20203;-74
2023/06/06 05:49:29;;;;;;;3.33;2.87;;;;;;;;;;5047908;28;20177;-73
2023/06/06 05:51:54;;;;;;;4.23;3.47;;;;;;;;;;5056771;28;20278;-73
2023/06/06 05:54:19;;;;;;;13.53;5.13;;;;;;;;;;5037581;28;20211;-73
2023/06/06 05:56:45;;;;;;;4.10;3.70;;;;;;;;;;5038863;28;20263;-73
2023/06/06 05:59:10;;;;;;;10.43;4.03;;;;;;;;;;5057543;28;20180;-73
2023/06/06 06:01:37;;;;;;;4.00;2.87;;;;;;;;;;5064408;28;20234;-75
2023/06/06 06:04:02;;;;;;;3.60;3.30;;;;;;;;;;5045406;28;20351;-76
2023/06/06 06:06:27;;;;;;;4.63;3.20;;;;;;;;;;5058388;28;20299;-75
2023/06/06 06:08:55;;;;;;;4.27;3.37;;;;;;;;;;5038752;28;20213;-75
2023/06/06 06:11:20;;;;;;;3.07;2.87;;;;;;;;;;5056305;28;20186;-75
2023/06/06 06:13:45;;;;;;;3.77;3.33;;;;;;;;;;5047479;28;20178;-75
2023/06/06 06:16:10;;;;;;;3.90;3.30;;;;;;;;;;5031994;28;20200;-75
2023/06/06 06:18:35;;;;;;;3.30;3.00;;;;;;;;;;5033849;28;20188;-73
2023/06/06 06:21:01;;;;;;;5.33;3.53;;;;;;;;;;5052357;28;20295;-73
2023/06/06 06:23:26;;;;;;;3.30;3.00;;;;;;;;;;5040635;28;20179;-73
2023/06/06 06:25:52;;;;;;;13.57;3.87;;;;;;;;;;5029306;28;20246;-73
2023/06/06 06:28:18;;;;;;;32.43;6.73;;;;;;;;;;5052296;28;20180;-73
2023/06/06 06:30:43;;;;;;;14.20;5.47;;;;;;;;;;5039665;28;20173;-74
2023/06/06 06:33:08;;;;;;;4.47;3.40;;;;;;;;;;5046998;28;20185;-73
2023/06/06 06:35:33;;;;;;;38.30;7.27;;;;;;;;;;5054687;28;20194;-73
2023/06/06 06:37:58;;;;;;;17.13;5.00;;;;;;;;;;5039657;28;20181;-73
2023/06/06 06:40:24;;;;;;;170.23;21.60;;;;;;;;;;5048492;28;20185;-73
2023/06/06 06:42:49;;;;;;;28.40;7.03;;;;;;;;;;5035485;28;20191;-73
2023/06/06 06:45:17;;;;;;;13.80;3.80;;;;;;;;;;5055874;28;20179;-73
2023/06/06 06:47:43;;;;;;;12.80;4.50;;;;;;;;;;5052852;28;20240;-73
2023/06/06 06:50:10;;;;;;;4.50;3.40;;;;;;;;;;5054970;28;20170;-72
2023/06/06 06:52:35;;;;;;;4.47;3.27;;;;;;;;;;5041956;28;20195;-73
2023/06/06 06:55:01;;;;;;;8.97;3.57;;;;;;;;;;5031334;28;20179;-73
2023/06/06 06:57:28;;;;;;;4.03;3.40;;;;;;;;;;5051779;28;20210;-73
2023/06/06 06:59:53;;;;;;;11.27;3.30;;;;;;;;;;5038735;28;20243;-72
2023/06/06 07:02:19;;;;;;;5.07;3.13;;;;;;;;;;5049583;28;20189;-72
2023/06/06 07:04:45;;;;;;;4.07;2.87;;;;;;;;;;5043537;28;20408;-72
2023/06/06 07:07:13;;;;;;;23.77;7.73;;;;;;;;;;5074262;28;20217;-73
2023/06/06 07:09:39;;;;;;;8.53;3.97;;;;;;;;;;5071480;28;20174;-72
2023/06/06 07:12:07;;;;;;;7.30;4.20;;;;;;;;;;5049673;28;20240;-73
2023/06/06 07:14:32;;;;;;;5.03;3.47;;;;;;;;;;5068244;28;20176;-73
2023/06/06 07:16:58;;;;;;;5.30;3.50;;;;;;;;;;5074842;28;20183;-75
2023/06/06 07:19:24;;;;;;;4.20;3.80;;;;;;;;;;5055041;28;20232;-73
2023/06/06 07:21:49;;;;;;;6.87;4.87;;;;;;;;;;5068768;28;20230;-73
2023/06/06 07:24:16;;;;;;;8.37;3.87;;;;;;;;;;5057598;28;20178;-73
2023/06/06 07:26:42;;;;;;;3.40;2.77;;;;;;;;;;5056044;28;20207;-73
2023/06/06 07:29:08;;;;;;;4.10;3.33;;;;;;;;;;5072939;28;20240;-73
2023/06/06 07:31:33;;;;;;;3.33;3.03;;;;;;;;;;5053199;28;20176;-73
2023/06/06 07:33:59;;;;;;;4.70;3.60;;;;;;;;;;5068053;28;20241;-72
2023/06/06 07:36:25;;;;;;;6.83;3.70;;;;;;;;;;5052901;28;20180;-73
2023/06/06 07:38:50;;;;;;;4.37;3.73;;;;;;;;;;5080668;28;20263;-73
2023/06/06 07:41:16;;;;;;;4.50;3.70;;;;;;;;;;5065899;28;20271;-73
2023/06/06 07:43:41;;;;;;;4.93;3.63;;;;;;;;;;5070929;28;20243;-73
2023/06/06 07:46:06;;;;;;;3.83;3.00;;;;;;;;;;5059929;28;20243;-73
2023/06/06 07:48:31;;;;;;;3.93;3.50;;;;;;;;;;5066340;28;20173;-73
2023/06/06 07:50:57;;;;;;;5.17;4.57;;;;;;;;;;5077450;28;20179;-74
2023/06/06 07:53:23;;;;;;;9.70;4.30;;;;;;;;;;5073177;28;20206;-73
2023/06/06 07:55:48;;;;;;;16.77;4.83;;;;;;;;;;5056152;28;20183;-73
2023/06/06 07:58:13;;;;;;;4.30;3.60;;;;;;;;;;5078206;28;20186;-73
2023/06/06 08:00:39;;;;;;;3.73;3.40;;;;;;;;;;5079471;28;20231;-73
2023/06/06 08:03:06;;;;;;;3.93;3.27;;;;;;;;;;5053368;28;20174;-73
2023/06/06 08:05:33;;;;;;;3.83;3.20;;;;;;;;;;5053692;28;20248;-73
2023/06/06 08:07:59;;;;;;;3.37;2.90;;;;;;;;;;5049207;28;20214;-73
2023/06/06 08:10:24;;;;;;;4.73;3.37;;;;;;;;;;5048149;28;20184;-72
2023/06/06 08:12:49;;;;;;;5.93;3.67;;;;;;;;;;5048513;28;20179;-74
2023/06/06 08:15:14;;;;;;;4.13;3.43;;;;;;;;;;5075566;28;20171;-72
2023/06/06 08:17:40;;;;;;;19.50;5.13;;;;;;;;;;5065436;28;20183;-74
2023/06/06 08:20:08;;;;;;;33.63;6.03;;;;;;;;;;5055870;28;20192;-74
2023/06/06 08:22:33;;;;;;;5.73;3.37;;;;;;;;;;5055712;28;20179;-75
2023/06/06 08:24:59;;;;;;;10.60;4.53;;;;;;;;;;5055225;28;20186;-73
2023/06/06 08:27:24;;;;;;;345.00;37.40;;;;;;;;;;5055757;28;20205;-73
2023/06/06 08:29:50;;;;;;;8.10;3.80;;;;;;;;;;5049021;28;20176;-74
2023/06/06 08:32:15;;;;;;;7.77;3.73;;;;;;;;;;5075685;28;20192;-73
2023/06/06 08:34:41;;;;;;;5.10;3.40;;;;;;;;;;5071196;28;20186;-73
2023/06/06 08:37:07;;;;;;;505.10;47.20;;;;;;;;;;5067112;28;20176;-74
2023/06/06 08:39:32;;;;;;;7.33;3.80;;;;;;;;;;5051868;28;20252;-73
2023/06/06 08:41:58;;;;;;;6.67;3.63;;;;;;;;;;5069518;28;20203;-73
2023/06/06 08:44:23;;;;;;;8.17;3.77;;;;;;;;;;5044088;28;20190;-73
2023/06/06 08:46:53;;;;;;;51.87;15.33;;;;;;;;;;5066807;28;20225;-73
2023/06/06 08:49:19;;;;;;;17.00;3.70;;;;;;;;;;5061645;28;20189;-73
2023/06/06 08:51:45;;;;;;;6.30;3.87;;;;;;;;;;5076768;28;20211;-74
2023/06/06 08:54:10;;;;;;;5.60;3.40;;;;;;;;;;5066051;28;20242;-73
2023/06/06 08:56:37;;;;;;;4.30;3.10;;;;;;;;;;5050398;28;20197;-73
2023/06/06 08:59:02;;;;;;;3.03;2.80;;;;;;;;;;5051731;28;20190;-73
2023/06/06 09:01:27;;;;;;;7.97;3.47;;;;;;;;;;5053175;28;20181;-73
2023/06/06 09:03:53;;;;;;;4.20;3.23;;;;;;;;;;5068801;28;20212;-73
2023/06/06 09:06:19;;;;;;;9.17;4.20;;;;;;;;;;5068888;28;20211;-73
2023/06/06 09:08:46;;;;;;;7.40;4.68;;;;;;;;;;5051392;28;20188;-77
2023/06/06 09:11:11;;;;;;;11.03;4.23;;;;;;;;;;5072137;28;20229;-73
2023/06/06 09:13:39;;;;;;;4.45;3.45;;;;;;;;;;5054753;28;20177;-73
2023/06/06 09:16:05;;;;;;;11.13;4.50;;;;;;;;;;5052393;28;20181;-73
2023/06/06 09:18:31;;;;;;;4.47;3.85;;;;;;;;;;5054821;28;20253;-73
2023/06/06 09:20:57;;;;;;;5.28;3.53;;;;;;;;;;5062020;28;20177;-73
2023/06/06 09:23:27;;;;;;;12.38;4.72;;;;;;;;;;5051994;28;20224;-76
2023/06/06 09:25:53;;;;;;;4.13;3.77;;;;;;;;;;5045505;28;20162;-75
2023/06/06 09:28:18;;;;;;;4.15;3.28;;;;;;;;;;5051890;28;20173;-75
2023/06/06 09:30:43;;;;;;;5.13;3.40;;;;;;;;;;5070753;28;20232;-75
2023/06/06 09:33:09;;;;;;;3.42;3.05;;;;;;;;;;5052131;28;20199;-75
2023/06/06 09:35:36;;;;;;;5.03;3.75;;;;;;;;;;5070016;28;20180;-74
2023/06/06 09:38:21;;;;;;;8.38;4.10;;;;;;;;;;5071307;28;20189;-74
2023/06/06 09:40:48;;;;;;;4.32;3.65;;;;;;;;;;5074448;28;20192;-74
2023/06/06 09:43:14;;;;;;;3.95;3.53;;;;;;;;;;5066618;28;20182;-74
2023/06/06 09:45:49;;;;;;;3.72;3.42;;;;;;;;;;5068223;28;20200;-74
2023/06/06 09:48:19;;;;;;;4.47;3.60;;;;;;;;;;5067322;28;20196;-77
2023/06/06 09:50:44;;;;;;;3.80;3.40;;;;;;;;;;5062431;28;20223;-74
2023/06/06 09:53:11;;;;;;;4.03;3.47;;;;;;;;;;5052211;28;20169;-75
2023/06/06 09:55:37;;;;;;;3.97;3.55;;;;;;;;;;5069175;28;20197;-75
2023/06/06 09:58:02;;;;;;;5.82;3.30;;;;;;;;;;5066512;28;20205;-75
2023/06/06 10:00:28;;;;;;;6.65;4.13;;;;;;;;;;5067252;28;20194;-75
2023/06/06 10:02:54;;;;;;;4.22;3.83;;;;;;;;;;5052873;28;20186;-75
2023/06/06 10:05:20;;;;;;;6.82;4.05;;;;;;;;;;5074619;28;20216;-75
2023/06/06 10:07:45;;;;;;;4.72;3.47;;;;;;;;;;5073406;28;20215;-75
2023/06/06 10:10:15;;;;;;;4.30;3.15;;;;;;;;;;5050930;28;20279;-74
2023/06/06 10:12:41;;;;;;;5.82;3.80;;;;;;;;;;5049052;28;20189;-75
2023/06/06 10:15:12;;;;;;;4.50;3.90;;;;;;;;;;5069081;28;20174;-75
2023/06/06 10:17:39;;;;;;;7.78;3.95;;;;;;;;;;5051844;28;20178;-75
2023/06/06 10:20:06;;;;;;;6.32;4.28;;;;;;;;;;5070306;28;20185;-75
2023/06/06 10:22:34;;;;;;;5.03;3.50;;;;;;;;;;5050552;28;20192;-75
2023/06/06 10:25:00;;;;;;;4.07;3.67;;;;;;;;;;5067364;28;20244;-75
2023/06/06 10:27:27;;;;;;;3.95;3.55;;;;;;;;;;5067358;28;20210;-75
2023/06/06 10:30:02;;;;;;;4.43;3.85;;;;;;;;;;5073176;28;20170;-75
2023/06/06 10:32:35;;;;;;;6.10;3.85;;;;;;;;;;5063184;28;20184;-75
2023/06/06 10:35:00;;;;;;;4.45;3.92;;;;;;;;;;5046192;28;20170;-75
2023/06/06 10:37:26;;;;;;;4.47;4.07;;;;;;;;;;5045288;28;20193;-75
2023/06/06 10:40:01;;;;;;;4.57;4.18;;;;;;;;;;5051445;28;20181;-75
2023/06/06 10:42:40;;;;;;;4.35;3.88;;;;;;;;;;5045126;28;20177;-75
2023/06/06 10:45:07;;;;;;;5.00;3.53;;;;;;;;;;5064849;28;20181;-75
2023/06/06 10:47:33;;;;;;;4.57;4.18;;;;;;;;;;5046166;28;20224;-76
2023/06/06 10:50:14;;;;;;;4.57;3.78;;;;;;;;;;5059189;28;20198;-75
2023/06/06 10:53:07;;;;;;;4.55;4.15;;;;;;;;;;5052028;28;20211;-75
2023/06/06 10:55:33;;;;;;;4.18;3.78;;;;;;;;;;5072032;28;20176;-75
2023/06/06 10:58:04;;;;;;;4.18;3.78;;;;;;;;;;5061263;28;20197;-75
2023/06/06 11:00:33;;;;;;;4.50;4.10;;;;;;;;;;5073791;28;20194;-75
2023/06/06 11:03:09;;;;;;;4.65;3.75;;;;;;;;;;5068588;28;20182;-75
2023/06/06 11:05:53;;;;;;;4.55;3.40;;;;;;;;;;5050524;28;20218;-75
2023/06/06 11:08:18;;;;;;;4.95;4.00;;;;;;;;;;5061469;28;20181;-75
2023/06/06 11:10:45;;;;;;;4.18;3.78;;;;;;;;;;5046103;28;20177;-75
2023/06/06 11:13:37;;;;;;;6.55;5.80;;;;;;;;;;5064207;28;20182;-75
2023/06/06 11:16:02;;;;;;;5.10;3.95;;;;;;;;;;5057181;28;20199;-75
2023/06/06 11:18:39;;;;;;;5.10;4.50;;;;;;;;;;5050899;28;20185;-75
2023/06/06 11:21:05;;;;;;;5.03;3.80;;;;;;;;;;5066475;28;20184;-75
2023/06/06 11:23:42;;;;;;;4.63;3.58;;;;;;;;;;5073575;28;20233;-75
2023/06/06 11:26:08;;;;;;;10.85;4.78;;;;;;;;;;5067563;28;20252;-74
2023/06/06 11:28:34;;;;;;;7.63;4.55;;;;;;;;;;5053839;28;20165;-74
2023/06/06 11:31:01;;;;;;;65.90;9.70;;;;;;;;;;5069395;28;20184;-74
2023/06/06 11:33:26;;;;;;;6.85;3.92;;;;;;;;;;5049713;28;20174;-74
2023/06/06 11:35:53;;;;;;;53.50;12.88;;;;;;;;;;5067687;28;20188;-74
2023/06/06 11:38:18;;;;;;;18.13;6.95;;;;;;;;;;5066946;28;20234;-74
2023/06/06 11:40:44;;;;;;;57.67;10.02;;;;;;;;;;5050190;28;20253;-74
2023/06/06 11:43:10;;;;;;;36.53;7.50;;;;;;;;;;5070314;28;20188;-74
2023/06/06 11:45:35;;;;;;;41.65;6.65;;;;;;;;;;5049240;28;20174;-74
2023/06/06 11:48:01;;;;;;;9.57;4.18;;;;;;;;;;5049655;28;20432;-75
2023/06/06 11:50:29;;;;;;;5.10;4.03;;;;;;;;;;5052452;28;20206;-74
2023/06/06 11:52:54;;;;;;;14.57;4.35;;;;;;;;;;5052556;28;20190;-74
2023/06/06 11:55:20;;;;;;;4.70;4.20;;;;;;;;;;5049294;28;20277;-74
2023/06/06 11:57:45;;;;;;;4.30;3.65;;;;;;;;;;5060203;28;20204;-74
2023/06/06 12:00:19;;;;;;;5.20;3.78;;;;;;;;;;5073001;28;20264;-74
2023/06/06 12:02:48;;;;;;;6.32;4.00;;;;;;;;;;5052131;28;20195;-74
2023/06/06 12:05:21;;;;;;;6.63;3.75;;;;;;;;;;5063259;28;20212;-74
2023/06/06 12:07:49;;;;;;;4.70;3.88;;;;;;;;;;5063315;28;20272;-74
2023/06/06 12:10:21;;;;;;;4.78;3.35;;;;;;;;;;5059772;28;20178;-74
2023/06/06 12:12:48;;;;;;;4.43;3.83;;;;;;;;;;5050757;28;20184;-74
2023/06/06 12:15:13;;;;;;;5.97;3.95;;;;;;;;;;5059645;28;20224;-74
2023/06/06 12:17:38;;;;;;;4.57;3.75;;;;;;;;;;5051429;28;20185;-74
2023/06/06 12:20:04;;;;;;;4.82;3.60;;;;;;;;;;5062106;28;20234;-74
2023/06/06 12:22:33;;;;;;;4.07;3.50;;;;;;;;;;5061358;28;20178;-74
2023/06/06 12:24:59;;;;;;;6.60;4.07;;;;;;;;;;5066581;28;20181;-75
2023/06/06 12:27:28;;;;;;;35.47;6.82;;;;;;;;;;5053627;28;20205;-74
2023/06/06 12:29:54;;;;;;;5.60;4.28;;;;;;;;;;5047257;28;20183;-74
2023/06/06 12:32:21;;;;;;;6.88;4.28;;;;;;;;;;5063140;28;20177;-75
2023/06/06 12:34:53;;;;;;;6.05;3.55;;;;;;;;;;5066576;28;20174;-74
2023/06/06 12:37:18;;;;;;;6.63;4.22;;;;;;;;;;5063625;28;20170;-74
2023/06/06 12:39:44;;;;;;;6.63;4.13;;;;;;;;;;5045643;28;20192;-74
2023/06/06 12:42:14;;;;;;;13.60;4.90;;;;;;;;;;5071755;28;20188;-74
2023/06/06 12:44:40;;;;;;;4.55;3.97;;;;;;;;;;5045131;28;20214;-74
2023/06/06 12:47:05;;;;;;;4.30;3.83;;;;;;;;;;5040227;28;20201;-74
2023/06/06 12:49:30;;;;;;;157.75;14.52;;;;;;;;;;5073296;28;20184;-74
2023/06/06 12:51:56;;;;;;;5.93;3.58;;;;;;;;;;5054969;28;20189;-74
2023/06/06 12:54:21;;;;;;;4.78;3.70;;;;;;;;;;5070844;28;20189;-74
2023/06/06 12:56:46;;;;;;;5.20;4.45;;;;;;;;;;5076719;28;20240;-74
2023/06/06 12:59:11;;;;;;;7.15;4.43;;;;;;;;;;5054417;28;20188;-74
2023/06/06 13:01:38;;;;;;;5.63;4.00;;;;;;;;;;5042804;28;20336;-74
2023/06/06 13:04:04;;;;;;;4.15;3.75;;;;;;;;;;5067433;28;20236;-74
2023/06/06 13:06:29;;;;;;;5.13;4.05;;;;;;;;;;5045590;28;20216;-75
2023/06/06 13:08:55;;;;;;;10.63;3.80;;;;;;;;;;5068770;28;20213;-74
2023/06/06 13:11:20;;;;;;;3.72;3.30;;;;;;;;;;5076512;28;20227;-74
2023/06/06 13:13:45;;;;;;;3.55;3.25;;;;;;;;;;5058481;28;20169;-74
2023/06/06 13:16:11;;;;;;;4.10;3.60;;;;;;;;;;5076478;28;20177;-75
2023/06/06 13:18:37;;;;;;;5.18;4.05;;;;;;;;;;5074797;28;20230;-74
2023/06/06 13:21:03;;;;;;;4.60;3.90;;;;;;;;;;5068914;28;20185;-74
2023/06/06 13:23:28;;;;;;;7.63;4.82;;;;;;;;;;5070655;28;20169;-74
2023/06/06 13:25:55;;;;;;;4.50;4.10;;;;;;;;;;5059089;28;20176;-75
2023/06/06 13:28:21;;;;;;;3.83;3.53;;;;;;;;;;5052219;28;20197;-74
2023/06/06 13:30:46;;;;;;;6.53;3.70;;;;;;;;;;5070698;28;20180;-74
2023/06/06 13:33:11;;;;;;;3.60;3.30;;;;;;;;;;5049549;28;20178;-74
2023/06/06 13:35:37;;;;;;;4.72;3.75;;;;;;;;;;5068355;28;20243;-74
2023/06/06 13:38:02;;;;;;;4.10;3.80;;;;;;;;;;5071135;28;20205;-74
2023/06/06 13:40:27;;;;;;;4.10;3.65;;;;;;;;;;5081235;28;20177;-74
2023/06/06 13:42:54;;;;;;;4.70;3.70;;;;;;;;;;5070182;28;20185;-74
2023/06/06 13:45:20;;;;;;;7.05;4.18;;;;;;;;;;5079237;28;20424;-74
2023/06/06 13:47:45;;;;;;;3.90;3.58;;;;;;;;;;5045354;28;20202;-74
2023/06/06 13:50:10;;;;;;;4.93;4.43;;;;;;;;;;5067662;28;20182;-75
2023/06/06 13:52:37;;;;;;;3.97;3.60;;;;;;;;;;5067102;28;20231;-74
2023/06/06 13:55:04;;;;;;;4.53;3.90;;;;;;;;;;5052329;28;20185;-75
2023/06/06 13:57:31;;;;;;;4.88;3.78;;;;;;;;;;5051353;28;20224;-75
2023/06/06 13:59:56;;;;;;;4.13;3.80;;;;;;;;;;5069966;28;20199;-75
2023/06/06 14:02:21;;;;;;;4.95;3.65;;;;;;;;;;5069451;28;20185;-75
2023/06/06 14:04:47;;;;;;;13.70;4.78;;;;;;;;;;5053287;28;20229;-74
2023/06/06 14:07:14;;;;;;;8.07;4.10;;;;;;;;;;5075123;28;20197;-74
2023/06/06 14:09:39;;;;;;;4.28;3.83;;;;;;;;;;5074736;28;20218;-74
2023/06/06 14:12:05;;;;;;;6.10;4.00;;;;;;;;;;5069077;28;20174;-74
2023/06/06 14:14:30;;;;;;;5.15;3.50;;;;;;;;;;5052328;28;20170;-75
2023/06/06 14:16:55;;;;;;;4.38;3.85;;;;;;;;;;5066548;28;20189;-75
2023/06/06 14:19:34;;;;;;;4.55;4.15;;;;;;;;;;5074417;28;20222;-75
2023/06/06 14:22:20;;;;;;;5.03;3.92;;;;;;;;;;5071318;28;20185;-75
2023/06/06 14:24:50;;;;;;;3.88;3.58;;;;;;;;;;5053422;28;20177;-74
2023/06/06 14:27:15;;;;;;;6.45;3.97;;;;;;;;;;5078550;28;20204;-75
2023/06/06 14:29:41;;;;;;;5.53;3.45;;;;;;;;;;5055442;28;20177;-75
2023/06/06 14:32:11;;;;;;;7.60;4.05;;;;;;;;;;5051433;28;20196;-74
2023/06/06 14:34:39;;;;;;;14.35;5.05;;;;;;;;;;5076469;28;20177;-74
2023/06/06 14:37:06;;;;;;;7.03;4.15;;;;;;;;;;5057452;28;20189;-74